Time;durP1;ratioP1;P1;durP2;ratioP2;P2;SDS_P1;SDS_P2;PMS_P1;PMS_P2;Temp;Humidity;BMP_temperature;BMP_pressure;BME280_temperature;BME280_humidity;BME280_pressure;Samples;Min_cycle;Max_cycle;Signal;HPM_P1;HPM_P2
2022/07/01 00:00:00;;;;;;;14.05;9.38;;;;;;;22.96;64.19;100933.06;4968440;28;20151;-74
2022/07/01 00:02:26;;;;;;;14.10;9.25;;;;;;;23.07;64.01;100923.06;4977736;28;20054;-73
2022/07/01 00:04:51;;;;;;;14.43;8.88;;;;;;;23.28;63.06;100928.84;4983247;28;20046;-73
2022/07/01 00:07:17;;;;;;;8.63;7.38;;;;;;;23.20;61.88;100928.34;4972003;28;20011;-73
2022/07/01 00:09:43;;;;;;;8.95;6.13;;;;;;;23.15;60.94;100925.50;4967485;28;20025;-72
2022/07/01 00:12:08;;;;;;;6.90;4.65;;;;;;;23.17;58.82;100940.75;4985299;28;20038;-73
2022/07/01 00:14:34;;;;;;;12.60;4.38;;;;;;;23.25;57.39;100936.78;4970794;28;20019;-73
2022/07/01 00:16:59;;;;;;;8.18;3.60;;;;;;;23.14;56.89;100934.84;4969366;28;20153;-73
2022/07/01 00:19:25;;;;;;;8.55;3.10;;;;;;;22.90;55.93;100907.22;4971088;28;20101;-73
2022/07/01 00:21:51;;;;;;;7.82;2.58;;;;;;;22.74;56.92;100897.69;4987702;28;20033;-73
2022/07/01 00:24:16;;;;;;;14.32;2.05;;;;;;;22.77;57.03;100901.91;4986234;28;20030;-71
2022/07/01 00:26:41;;;;;;;7.38;2.55;;;;;;;22.46;58.11;100911.31;4972032;28;20031;-71
2022/07/01 00:29:07;;;;;;;7.53;2.72;;;;;;;22.45;58.53;100918.75;5001455;28;20026;-71
2022/07/01 00:31:32;;;;;;;4.78;2.40;;;;;;;22.34;59.28;100903.00;4971821;28;20026;-71
2022/07/01 00:33:57;;;;;;;4.22;2.70;;;;;;;21.87;61.23;100897.28;4983720;28;20066;-70
2022/07/01 00:36:23;;;;;;;3.63;1.88;;;;;;;21.95;61.11;100902.47;4979533;28;20097;-70
2022/07/01 00:38:48;;;;;;;4.95;3.00;;;;;;;21.91;63.17;100915.03;4967466;28;20030;-71
2022/07/01 00:41:14;;;;;;;4.93;3.10;;;;;;;21.45;67.33;100914.75;4974026;28;20105;-72
2022/07/01 00:43:40;;;;;;;9.80;3.03;;;;;;;21.30;66.19;100912.38;4970993;28;20029;-73
2022/07/01 00:46:05;;;;;;;8.10;3.30;;;;;;;21.12;68.63;100893.88;4973383;28;20093;-74
2022/07/01 00:48:36;;;;;;;21.27;3.92;;;;;;;21.24;70.18;100892.06;4971627;28;20046;-77
2022/07/01 00:51:02;;;;;;;11.60;5.00;;;;;;;21.15;72.95;100863.16;4981136;28;20021;-77
2022/07/01 00:53:29;;;;;;;77.03;10.32;;;;;;;21.05;74.95;100868.31;4970762;28;20030;-75
2022/07/01 00:55:55;;;;;;;19.58;5.82;;;;;;;20.42;77.23;100893.19;4984376;28;20015;-73
2022/07/01 00:58:20;;;;;;;17.95;6.75;;;;;;;20.05;79.34;100915.00;4983182;28;20092;-75
2022/07/01 01:00:46;;;;;;;18.02;7.22;;;;;;;19.64;81.03;100940.97;4979082;28;20061;-75
2022/07/01 01:03:11;;;;;;;19.38;7.40;;;;;;;19.38;82.12;100951.97;4980373;28;20039;-77
2022/07/01 01:05:38;;;;;;;95.25;12.10;;;;;;;19.27;85.39;100933.41;4968485;28;20014;-76
2022/07/01 01:08:05;;;;;;;74.80;15.52;;;;;;;18.88;87.64;100893.97;4988215;28;20053;-77
2022/07/01 01:10:30;;;;;;;60.67;14.25;;;;;;;18.90;88.24;100905.56;4995608;28;20027;-73
2022/07/01 01:12:57;;;;;;;31.90;13.73;;;;;;;18.96;87.77;100882.78;4966373;28;20027;-76
2022/07/01 01:15:23;;;;;;;51.85;15.68;;;;;;;19.11;88.10;100864.19;4968842;28;20025;-77
2022/07/01 01:17:48;;;;;;;34.67;13.30;;;;;;;19.27;87.82;100829.09;4969284;28;20015;-74
2022/07/01 01:20:15;;;;;;;33.15;15.20;;;;;;;19.27;87.61;100802.47;4964898;28;20037;-73
2022/07/01 01:22:41;;;;;;;26.13;13.45;;;;;;;19.27;87.00;100774.19;4968776;28;20018;-74
2022/07/01 01:25:07;;;;;;;21.85;11.23;;;;;;;19.38;86.55;100754.28;4969656;28;20147;-73
2022/07/01 01:27:32;;;;;;;22.88;10.05;;;;;;;19.38;86.81;100765.28;4979444;28;20025;-74
2022/07/01 01:29:58;;;;;;;21.05;9.57;;;;;;;19.24;84.95;100753.53;4976013;28;20443;-74
2022/07/01 01:32:23;;;;;;;18.05;10.93;;;;;;;19.24;85.69;100748.88;4989835;28;20021;-76
2022/07/01 01:34:49;;;;;;;20.55;10.77;;;;;;;19.32;86.33;100767.00;4968842;28;20035;-74
2022/07/01 01:37:14;;;;;;;16.98;9.00;;;;;;;19.48;85.70;100780.19;4989730;28;20034;-74
2022/07/01 01:39:40;;;;;;;18.27;10.50;;;;;;;19.41;85.42;100793.13;4963497;28;20029;-76
2022/07/01 01:42:06;;;;;;;22.38;10.20;;;;;;;19.37;85.69;100782.81;4969577;28;20030;-73
2022/07/01 01:44:32;;;;;;;28.10;11.90;;;;;;;19.34;86.62;100791.47;4972709;28;20014;-73
2022/07/01 01:46:57;;;;;;;22.85;11.70;;;;;;;19.50;86.23;100783.59;4968432;28;20049;-73
2022/07/01 01:49:22;;;;;;;21.15;12.80;;;;;;;19.64;86.54;100781.63;4980664;28;20090;-72
2022/07/01 01:51:48;;;;;;;26.75;12.65;;;;;;;19.67;86.27;100775.69;4983381;28;20386;-72
2022/07/01 01:54:14;;;;;;;19.83;10.88;;;;;;;19.82;86.18;100775.38;4968049;28;20026;-71
2022/07/01 01:56:39;;;;;;;19.08;10.25;;;;;;;19.75;85.38;100772.69;4980162;28;20029;-71
2022/07/01 01:59:04;;;;;;;20.35;11.55;;;;;;;19.85;84.06;100777.69;4975824;28;20033;-71
2022/07/01 02:01:30;;;;;;;20.23;11.13;;;;;;;19.84;85.06;100781.50;4979218;28;20026;-70
2022/07/01 02:03:56;;;;;;;13.65;9.02;;;;;;;19.91;84.76;100795.22;4969450;28;20018;-70
2022/07/01 02:06:22;;;;;;;24.77;11.85;;;;;;;19.93;84.01;100801.31;4969818;28;20084;-70
2022/07/01 02:08:48;;;;;;;15.75;10.85;;;;;;;19.90;84.59;100808.13;4976018;28;20023;-70
2022/07/01 02:11:14;;;;;;;19.08;11.48;;;;;;;19.86;84.32;100806.84;4968128;28;20022;-70
2022/07/01 02:17:21;;;;;;;16.90;10.83;;;;;;;19.56;84.65;100856.03;5044738;23;20065;-70
2022/07/01 02:19:46;;;;;;;20.02;10.48;;;;;;;19.35;85.61;100861.78;4982290;28;20021;-71
2022/07/01 02:22:12;;;;;;;22.27;11.27;;;;;;;19.42;86.41;100848.88;5003005;28;20536;-71
2022/07/01 02:24:37;;;;;;;19.50;9.95;;;;;;;19.65;85.23;100831.94;4980116;28;20014;-71
2022/07/01 02:27:02;;;;;;;18.63;12.48;;;;;;;19.86;85.30;100839.84;4986382;28;20028;-73
2022/07/01 02:29:28;;;;;;;15.32;8.95;;;;;;;19.95;84.26;100848.66;4987760;28;20418;-72
2022/07/01 02:31:53;;;;;;;14.65;9.20;;;;;;;20.14;83.11;100853.19;4983923;28;20103;-72
2022/07/01 02:34:19;;;;;;;15.15;10.40;;;;;;;20.15;83.81;100832.91;4979815;28;20026;-73
2022/07/01 02:36:44;;;;;;;20.85;10.93;;;;;;;20.04;84.22;100841.84;4983889;28;20037;-74
2022/07/01 02:39:10;;;;;;;20.60;11.60;;;;;;;19.95;84.35;100843.16;5010373;28;20025;-73
2022/07/01 02:42:22;;;;;;;17.10;11.23;;;;;;;19.73;85.34;100857.22;4993265;28;20024;-75
2022/07/01 02:44:20;;;;;;;21.05;12.48;;;;;;;19.78;86.02;100851.09;5001985;28;20120;-74
2022/07/01 02:46:46;;;;;;;20.77;12.50;;;;;;;20.00;85.57;100857.09;4981937;28;20176;-74
2022/07/01 02:49:11;;;;;;;16.75;12.02;;;;;;;20.17;84.97;100858.25;4989970;28;20034;-73
2022/07/01 02:51:36;;;;;;;12.30;8.98;;;;;;;20.24;83.51;100859.03;4988539;28;20022;-74
2022/07/01 02:54:04;;;;;;;15.80;9.82;;;;;;;20.28;83.65;100846.53;4990026;28;20093;-74
2022/07/01 02:56:30;;;;;;;18.52;11.35;;;;;;;20.37;83.73;100847.09;4993830;28;20014;-73
2022/07/01 02:58:55;;;;;;;20.63;11.73;;;;;;;20.38;83.45;100850.69;5021496;28;20104;-73
2022/07/01 03:01:21;;;;;;;19.60;11.35;;;;;;;20.30;82.59;100873.81;4992157;28;20028;-73
2022/07/01 03:03:46;;;;;;;18.20;11.93;;;;;;;20.00;82.88;100881.81;5007387;28;20022;-73
2022/07/01 03:06:11;;;;;;;18.58;12.05;;;;;;;20.00;83.45;100901.06;4991206;28;20014;-73
2022/07/01 03:08:37;;;;;;;22.58;12.48;;;;;;;19.82;85.18;100898.19;4984761;28;20014;-72
2022/07/01 03:11:02;;;;;;;27.98;15.45;;;;;;;19.75;85.52;100910.03;5016023;28;20045;-73
2022/07/01 03:13:27;;;;;;;24.88;14.70;;;;;;;19.93;84.35;100911.25;4986595;28;20034;-73
2022/07/01 03:15:53;;;;;;;23.65;11.52;;;;;;;19.90;84.16;100912.53;4985439;28;20098;-75
2022/07/01 03:18:18;;;;;;;26.88;13.93;;;;;;;19.83;84.64;100921.88;5001427;28;20022;-73
2022/07/01 03:20:44;;;;;;;34.22;17.75;;;;;;;19.67;85.50;100936.91;4997249;28;20034;-73
2022/07/01 03:23:09;;;;;;;39.08;21.23;;;;;;;19.53;86.68;100944.34;4987809;28;20033;-74
2022/07/01 03:25:35;;;;;;;37.63;21.73;;;;;;;19.53;86.95;100960.81;4981374;28;20421;-75
2022/07/01 03:28:03;;;;;;;31.77;18.83;;;;;;;19.69;86.28;100952.16;4995385;28;20101;-73
2022/07/01 03:30:28;;;;;;;32.47;20.55;;;;;;;19.74;86.22;100957.81;4984846;28;20551;-73
2022/07/01 03:32:53;;;;;;;31.17;18.10;;;;;;;19.74;85.54;100952.31;4995963;28;20113;-73
2022/07/01 03:35:39;;;;;;;26.88;18.00;;;;;;;19.52;85.94;100959.13;4987738;28;20029;-74
2022/07/01 03:38:05;;;;;;;20.65;11.57;;;;;;;19.50;84.44;100961.25;4990774;28;20030;-73
2022/07/01 03:40:34;;;;;;;22.55;12.70;;;;;;;19.45;84.68;100963.78;4986201;28;20022;-73
2022/07/01 03:43:00;;;;;;;22.98;15.13;;;;;;;19.40;84.11;100969.06;4988835;28;20026;-74
2022/07/01 03:45:26;;;;;;;27.42;17.33;;;;;;;19.38;83.79;100962.97;4987066;28;20013;-73
2022/07/01 03:47:51;;;;;;;41.15;19.17;;;;;;;19.32;84.75;100980.28;4993762;28;20101;-73
2022/07/01 03:50:20;;;;;;;35.20;23.38;;;;;;;19.31;84.46;100968.47;4991814;28;20029;-73
2022/07/01 03:52:45;;;;;;;31.27;22.42;;;;;;;19.30;84.23;100965.91;4998162;28;20026;-73
2022/07/01 03:55:11;;;;;;;32.95;24.40;;;;;;;19.25;84.92;100959.19;4990054;28;20018;-73
2022/07/01 03:57:37;;;;;;;35.95;23.23;;;;;;;19.46;84.06;100954.50;4983384;28;20030;-73
2022/07/01 04:00:05;;;;;;;37.58;24.13;;;;;;;19.36;84.79;100943.09;4988313;28;20097;-73
2022/07/01 04:02:30;;;;;;;38.13;22.98;;;;;;;19.40;83.91;100944.38;4994177;28;20030;-73
2022/07/01 04:04:55;;;;;;;33.42;24.45;;;;;;;19.68;83.31;100942.19;4996625;28;20014;-73
2022/07/01 04:07:21;;;;;;;24.45;19.25;;;;;;;19.62;83.17;100937.56;4990573;28;20017;-73
2022/07/01 04:09:47;;;;;;;29.70;17.75;;;;;;;19.58;82.95;100935.50;5006138;28;20025;-74
2022/07/01 04:12:13;;;;;;;22.77;16.08;;;;;;;19.44;83.92;100929.16;4988657;28;20068;-74
2022/07/01 04:14:39;;;;;;;28.92;15.48;;;;;;;19.45;82.97;100919.84;4994751;28;20049;-76
2022/07/01 04:17:04;;;;;;;65.47;20.02;;;;;;;19.10;85.79;100905.56;4983983;28;20030;-84
2022/07/01 04:19:31;;;;;;;32.55;20.73;;;;;;;19.18;85.42;100908.09;5001231;28;20028;-77
2022/07/01 04:24:40;;;;;;;33.70;19.58;;;;;;;19.30;85.52;100927.47;5012265;28;20013;-77
2022/07/01 04:27:06;;;;;;;27.05;18.45;;;;;;;19.10;85.07;100933.84;4997866;28;20029;-79
2022/07/01 04:29:31;;;;;;;26.27;16.98;;;;;;;18.97;85.81;100944.81;5011019;28;20085;-77
2022/07/01 04:31:57;;;;;;;30.55;17.33;;;;;;;18.81;86.40;100962.56;4987490;28;20029;-76
2022/07/01 04:34:24;;;;;;;25.13;15.35;;;;;;;18.64;86.57;100962.09;4985768;28;20025;-76
2022/07/01 04:36:50;;;;;;;19.70;15.70;;;;;;;18.72;87.19;100946.53;4988205;28;20033;-76
2022/07/01 04:39:15;;;;;;;24.75;15.57;;;;;;;18.80;87.26;100960.03;4999920;28;20041;-76
2022/07/01 04:41:59;;;;;;;21.17;13.55;;;;;;;18.77;86.25;100963.19;4996963;28;20018;-77
2022/07/01 04:44:26;;;;;;;20.48;14.90;;;;;;;18.68;86.80;100963.41;4991101;28;20072;-77
2022/07/01 04:46:51;;;;;;;16.80;12.10;;;;;;;18.61;86.08;100973.50;4991757;28;20087;-76
2022/07/01 04:49:17;;;;;;;14.77;12.55;;;;;;;18.61;86.60;100968.00;4988063;28;20017;-75
2022/07/01 04:51:43;;;;;;;17.45;13.50;;;;;;;18.67;86.37;100972.69;4994130;28;20013;-76
2022/07/01 04:54:08;;;;;;;28.05;14.55;;;;;;;18.70;86.12;100977.75;4983401;28;20053;-76
2022/07/01 04:56:35;;;;;;;18.83;13.70;;;;;;;18.66;86.07;100981.97;5001588;28;20043;-79
2022/07/01 04:59:01;;;;;;;18.23;14.70;;;;;;;18.37;86.74;100985.88;4989174;28;20018;-73
2022/07/01 05:01:28;;;;;;;16.10;12.70;;;;;;;18.33;86.57;100998.31;4995950;28;20022;-75
2022/07/01 05:03:54;;;;;;;17.80;14.10;;;;;;;18.34;87.35;100999.16;5002078;28;20032;-75
2022/07/01 05:06:20;;;;;;;27.77;18.48;;;;;;;18.29;88.18;101018.13;4991396;28;20014;-75
2022/07/01 05:08:45;;;;;;;24.20;19.00;;;;;;;18.12;88.39;101007.50;4987929;28;20064;-78
2022/07/01 05:11:11;;;;;;;31.38;18.25;;;;;;;18.03;87.92;101024.31;4989394;28;20019;-75
2022/07/01 05:13:37;;;;;;;29.45;19.10;;;;;;;17.88;88.58;101022.56;4989413;28;20025;-74
2022/07/01 05:16:06;;;;;;;29.77;17.27;;;;;;;17.90;87.81;101036.06;4989907;28;20029;-80
2022/07/01 05:23:59;;;;;;;38.83;17.67;;;;;;;17.60;89.05;101052.72;5011006;28;20022;-77
2022/07/01 05:26:25;;;;;;;51.83;20.15;;;;;;;17.73;88.21;101051.13;4986789;28;20017;-75
2022/07/01 05:28:52;;;;;;;39.42;18.83;;;;;;;17.55;87.40;101055.19;4994498;28;20022;-75
2022/07/01 05:31:18;;;;;;;49.60;20.13;;;;;;;17.42;88.02;101071.53;4994134;28;20021;-75
2022/07/01 05:33:43;;;;;;;62.53;19.13;;;;;;;17.41;87.54;101075.31;5001069;28;20010;-74
2022/07/01 05:36:10;;;;;;;46.05;19.38;;;;;;;17.52;88.28;101088.44;4987431;28;20018;-79
2022/07/01 05:38:35;;;;;;;53.53;14.15;;;;;;;17.32;87.24;101077.31;4991594;28;20036;-73
2022/07/01 05:41:01;;;;;;;28.02;10.35;;;;;;;17.31;86.25;101080.28;4987618;28;20022;-72
2022/07/01 05:43:27;;;;;;;20.45;8.23;;;;;;;17.30;85.85;101073.09;5011944;28;20032;-72
2022/07/01 05:45:52;;;;;;;22.10;6.72;;;;;;;17.06;84.76;101083.41;4989923;28;20018;-72
2022/07/01 05:48:18;;;;;;;19.17;6.88;;;;;;;17.03;85.99;101097.50;5011327;28;20025;-73
2022/07/01 05:50:43;;;;;;;11.25;5.68;;;;;;;16.94;86.20;101106.84;5009310;28;20018;-73
2022/07/01 05:53:09;;;;;;;20.48;6.53;;;;;;;16.88;86.53;101113.09;5007233;28;20064;-73
2022/07/01 05:55:34;;;;;;;17.92;5.68;;;;;;;16.69;86.75;101130.09;5009633;28;20017;-73
2022/07/01 05:58:01;;;;;;;17.88;5.97;;;;;;;16.79;86.73;101147.06;4985332;28;20022;-73
2022/07/01 06:00:29;;;;;;;15.30;5.80;;;;;;;16.77;87.64;101154.63;5023496;28;20017;-77
2022/07/01 06:02:55;;;;;;;12.68;5.03;;;;;;;16.74;87.83;101160.47;5007394;28;20036;-76
2022/07/01 06:05:20;;;;;;;15.27;4.55;;;;;;;16.63;86.86;101160.94;5032268;28;20018;-76
2022/07/01 06:07:46;;;;;;;18.98;6.10;;;;;;;16.54;88.11;101146.53;4991065;28;20014;-77
2022/07/01 06:10:11;;;;;;;19.52;5.90;;;;;;;16.42;88.47;101137.94;5019123;28;20014;-78
2022/07/01 06:12:38;;;;;;;20.35;5.70;;;;;;;16.17;88.79;101133.81;5008251;28;20049;-76
2022/07/01 06:15:05;;;;;;;20.48;5.18;;;;;;;16.09;89.44;101123.00;4988479;28;20637;-76
2022/07/01 06:17:31;;;;;;;21.80;5.07;;;;;;;16.12;89.31;101139.03;4996675;28;20040;-77
2022/07/01 06:19:56;;;;;;;23.65;5.13;;;;;;;16.10;88.03;101157.47;4999379;28;20022;-75
2022/07/01 06:22:22;;;;;;;20.42;4.07;;;;;;;16.15;87.62;101165.94;4993863;28;20057;-76
2022/07/01 06:24:48;;;;;;;18.67;4.35;;;;;;;16.31;87.93;101165.78;4999969;28;20026;-76
2022/07/01 06:27:13;;;;;;;14.23;4.43;;;;;;;16.30;87.87;101175.03;4992781;28;20076;-77
2022/07/01 06:29:39;;;;;;;11.85;4.32;;;;;;;16.29;87.43;101185.06;5000566;28;20175;-76
2022/07/01 06:32:05;;;;;;;13.55;4.18;;;;;;;16.34;87.27;101191.88;4997425;28;20025;-76
2022/07/01 06:34:31;;;;;;;19.27;4.40;;;;;;;16.38;87.25;101199.50;5003089;28;20021;-74
2022/07/01 06:37:00;;;;;;;15.70;3.92;;;;;;;16.34;87.40;101192.72;5003937;28;20036;-74
2022/07/01 06:39:28;;;;;;;12.77;3.50;;;;;;;16.34;86.17;101181.78;4992243;28;20021;-76
2022/07/01 06:41:55;;;;;;;18.48;4.50;;;;;;;16.34;87.38;101181.78;5023456;28;20018;-76
2022/07/01 06:44:20;;;;;;;15.85;4.25;;;;;;;16.32;87.74;101166.63;5009581;28;20102;-75
2022/07/01 06:46:46;;;;;;;14.52;4.70;;;;;;;16.39;87.73;101146.53;4992721;28;20076;-76
2022/07/01 06:49:12;;;;;;;26.10;4.50;;;;;;;16.27;87.54;101142.59;5015989;28;20009;-78
2022/07/01 06:51:38;;;;;;;11.63;4.20;;;;;;;16.24;87.91;101153.91;4992439;28;20022;-76
2022/07/01 06:54:04;;;;;;;19.95;4.03;;;;;;;16.18;88.19;101138.28;4983165;28;20019;-77
2022/07/01 06:56:30;;;;;;;15.07;4.10;;;;;;;16.34;87.57;101110.72;4981397;28;20104;-77
2022/07/01 06:58:56;;;;;;;23.45;4.88;;;;;;;16.48;87.95;101112.59;4983922;28;20026;-77
2022/07/01 07:01:22;;;;;;;8.85;3.90;;;;;;;16.67;87.57;101126.69;4981216;28;20037;-79
2022/07/01 07:03:47;;;;;;;14.02;3.47;;;;;;;16.71;86.38;101137.09;5004289;28;20029;-80
2022/07/01 07:06:13;;;;;;;13.93;3.45;;;;;;;16.69;86.15;101157.44;4992097;28;20296;-81
2022/07/01 07:08:39;;;;;;;15.68;3.90;;;;;;;16.42;86.91;101164.44;4993467;28;20052;-77
2022/07/01 07:11:05;;;;;;;11.40;3.75;;;;;;;16.60;86.78;101177.72;4985967;28;20022;-77
2022/07/01 07:13:31;;;;;;;15.30;3.92;;;;;;;16.50;87.39;101176.13;5001397;28;20485;-82
2022/07/01 07:15:56;;;;;;;12.70;3.97;;;;;;;16.61;85.95;101195.81;4991142;28;20108;-80
2022/07/01 07:18:22;;;;;;;14.32;4.20;;;;;;;16.46;85.98;101185.75;4997652;28;20022;-79
2022/07/01 07:20:47;;;;;;;12.20;5.20;;;;;;;16.60;87.64;101177.72;5000898;28;20044;-78
2022/07/01 07:23:14;;;;;;;14.40;4.60;;;;;;;16.72;86.81;101168.03;5004782;28;20025;-78
2022/07/01 07:25:39;;;;;;;20.05;6.18;;;;;;;16.80;86.77;101174.22;4993646;28;20022;-80
2022/07/01 07:28:05;;;;;;;13.77;5.30;;;;;;;16.77;86.28;101176.50;4992796;28;20108;-77
2022/07/01 07:30:30;;;;;;;12.10;5.05;;;;;;;16.70;86.09;101183.78;5008990;28;20021;-75
2022/07/01 07:32:55;;;;;;;18.30;5.47;;;;;;;16.59;87.06;101192.44;4995138;28;20017;-73
2022/07/01 07:35:21;;;;;;;10.05;5.18;;;;;;;16.53;87.40;101199.50;4981496;28;20014;-72
2022/07/01 07:37:46;;;;;;;13.52;4.88;;;;;;;16.61;87.09;101204.00;4989215;28;20041;-71
2022/07/01 07:40:17;;;;;;;14.60;4.18;;;;;;;16.20;86.44;101212.69;5009484;28;20032;-71
2022/07/01 07:42:43;;;;;;;9.60;3.80;;;;;;;16.11;86.46;101214.66;4987124;28;20026;-70
2022/07/01 07:45:11;;;;;;;9.63;4.43;;;;;;;16.00;86.84;101223.31;5002210;28;20030;-70
2022/07/01 07:47:36;;;;;;;19.38;4.93;;;;;;;15.98;86.62;101220.75;4979291;28;20027;-70
2022/07/01 07:50:03;;;;;;;12.68;3.72;;;;;;;15.99;86.78;101216.16;4995028;28;20209;-70
2022/07/01 07:52:29;;;;;;;8.70;4.10;;;;;;;15.93;87.16;101217.72;4989675;28;20014;-69
2022/07/01 07:54:54;;;;;;;9.88;4.47;;;;;;;15.85;87.94;101198.69;4978714;28;20355;-69
2022/07/01 07:57:20;;;;;;;8.45;4.00;;;;;;;15.92;88.16;101199.66;4999957;28;20026;-70
2022/07/01 07:59:45;;;;;;;10.38;3.95;;;;;;;16.16;87.65;101194.97;4985521;28;20014;-69
2022/07/01 08:02:11;;;;;;;12.13;4.45;;;;;;;16.07;87.71;101198.81;4984449;28;20021;-69
2022/07/01 08:04:36;;;;;;;14.13;4.68;;;;;;;16.12;87.18;101204.59;5001913;28;20022;-70
2022/07/01 08:07:02;;;;;;;11.82;4.70;;;;;;;16.20;87.07;101196.28;4983203;28;20409;-70
2022/07/01 08:09:27;;;;;;;9.02;4.65;;;;;;;16.18;86.29;101192.91;4994764;28;20014;-71
2022/07/01 08:11:53;;;;;;;9.00;3.78;;;;;;;16.00;85.77;101191.38;4984586;28;20017;-72
2022/07/01 08:14:19;;;;;;;5.75;3.50;;;;;;;15.94;86.07;101203.03;4990227;28;20473;-72
2022/07/01 08:16:44;;;;;;;8.20;4.20;;;;;;;15.77;86.38;101201.47;4988561;28;20030;-71
2022/07/01 08:19:09;;;;;;;14.95;4.55;;;;;;;15.72;87.12;101198.47;4995099;28;20067;-70
2022/07/01 08:21:35;;;;;;;12.85;5.45;;;;;;;15.84;87.84;101207.06;5001664;28;20033;-73
2022/07/01 08:24:01;;;;;;;9.23;4.70;;;;;;;15.90;87.19;101228.16;4981655;28;20030;-70
2022/07/01 08:26:26;;;;;;;9.20;4.80;;;;;;;16.15;86.12;101221.44;4982624;28;20014;-73
2022/07/01 08:28:52;;;;;;;7.78;4.43;;;;;;;16.01;86.01;101219.53;5007302;28;20010;-71
2022/07/01 08:31:17;;;;;;;12.85;4.65;;;;;;;16.29;85.03;101225.22;4982926;28;20025;-70
2022/07/01 08:33:42;;;;;;;19.00;5.35;;;;;;;16.19;85.62;101222.78;5005480;28;20025;-71
2022/07/01 08:36:09;;;;;;;12.40;4.30;;;;;;;16.12;84.35;101231.91;4979161;28;20042;-73
2022/07/01 08:38:36;;;;;;;7.57;4.00;;;;;;;16.25;84.17;101234.84;4983533;28;20096;-72
2022/07/01 08:41:04;;;;;;;16.65;4.88;;;;;;;15.99;84.86;101232.53;4985553;28;20022;-72
2022/07/01 08:43:30;;;;;;;11.93;5.28;;;;;;;16.12;85.39;101238.22;4995707;28;20017;-71
2022/07/01 08:45:58;;;;;;;8.63;5.07;;;;;;;15.99;84.85;101249.78;5000967;28;20033;-73
2022/07/01 08:48:24;;;;;;;14.32;4.80;;;;;;;16.24;84.16;101242.19;4979970;28;20034;-72
2022/07/01 08:50:50;;;;;;;11.18;4.80;;;;;;;16.30;84.68;101246.06;4984784;28;20594;-73
2022/07/01 08:53:15;;;;;;;8.15;5.28;;;;;;;16.23;84.56;101239.63;4984873;28;20120;-74
2022/07/01 08:58:27;;;;;;;10.68;4.97;;;;;;;16.14;84.89;101243.47;5009546;28;20060;-71
2022/07/01 09:00:53;;;;;;;10.80;5.05;;;;;;;16.47;83.60;101258.50;4992223;28;20013;-71
2022/07/01 09:03:22;;;;;;;7.72;4.20;;;;;;;16.22;83.99;101265.25;4991005;28;20013;-74
2022/07/01 09:05:50;;;;;;;11.55;5.20;;;;;;;16.05;83.66;101269.19;5010176;28;20028;-74
2022/07/01 09:08:15;;;;;;;9.50;5.05;;;;;;;16.18;84.14;101263.94;4992240;28;20112;-73
2022/07/01 09:10:41;;;;;;;10.48;5.05;;;;;;;16.31;84.38;101275.09;4982346;28;20089;-74
2022/07/01 09:13:09;;;;;;;7.63;4.93;;;;;;;16.24;83.83;101279.59;5009280;28;20029;-71
2022/07/01 09:15:36;;;;;;;11.32;5.10;;;;;;;16.06;84.01;101279.94;4991902;28;20053;-73
2022/07/01 09:18:13;;;;;;;18.15;5.53;;;;;;;16.06;84.10;101284.53;4987078;28;20056;-73
2022/07/01 09:20:43;;;;;;;11.90;4.78;;;;;;;16.12;82.95;101281.91;4989808;28;20048;-74
2022/07/01 09:23:11;;;;;;;9.00;4.72;;;;;;;16.26;84.40;101277.53;5000888;28;20029;-72
2022/07/01 09:25:43;;;;;;;14.98;4.78;;;;;;;16.16;83.70;101290.56;4984594;28;20029;-73
2022/07/01 09:28:09;;;;;;;7.57;4.60;;;;;;;16.33;82.79;101289.41;4999987;28;20113;-71
2022/07/01 09:30:36;;;;;;;9.35;4.97;;;;;;;16.09;82.80;101289.63;4983343;28;20033;-71
2022/07/01 09:33:10;;;;;;;11.68;5.30;;;;;;;16.25;83.97;101292.22;5017289;28;20014;-72
2022/07/01 09:35:38;;;;;;;6.78;5.40;;;;;;;16.41;85.02;101292.03;4980312;28;20394;-73
2022/07/01 09:38:08;;;;;;;10.60;6.20;;;;;;;16.05;84.06;101301.97;4991895;28;20038;-71
2022/07/01 09:40:46;;;;;;;14.20;6.15;;;;;;;16.25;83.69;101300.41;4986911;28;20017;-72
2022/07/01 09:43:24;;;;;;;17.20;6.88;;;;;;;16.20;83.69;101316.50;5000695;28;20165;-72
2022/07/01 09:46:09;;;;;;;7.95;6.65;;;;;;;16.25;84.10;101309.47;4989039;28;20105;-73
2022/07/01 09:48:35;;;;;;;8.00;5.53;;;;;;;16.48;83.11;101298.47;4983083;28;20014;-75
2022/07/01 09:51:05;;;;;;;12.75;6.50;;;;;;;16.21;83.81;101297.19;4995083;28;20032;-72
2022/07/01 09:53:31;;;;;;;10.25;5.93;;;;;;;16.26;83.48;101299.38;4980896;28;20049;-73
2022/07/01 09:55:57;;;;;;;8.93;5.90;;;;;;;16.47;83.37;101290.47;5001943;28;20041;-73
2022/07/01 09:58:23;;;;;;;5.70;4.85;;;;;;;16.62;83.08;101293.19;5002225;28;20369;-74
2022/07/01 10:00:48;;;;;;;13.43;5.55;;;;;;;16.54;81.25;101291.41;4980676;28;20102;-73
2022/07/01 10:03:15;;;;;;;9.05;5.25;;;;;;;16.52;83.13;101297.06;4995740;28;20033;-74
2022/07/01 10:05:45;;;;;;;12.05;4.78;;;;;;;16.31;82.14;101316.06;4987606;28;20010;-74
2022/07/01 10:08:42;;;;;;;10.30;5.45;;;;;;;16.34;83.80;101318.41;4990328;28;20053;-73
2022/07/01 10:11:49;;;;;;;10.05;5.70;;;;;;;16.40;82.54;101345.00;5004330;28;20034;-74
2022/07/01 10:14:16;;;;;;;8.68;5.05;;;;;;;16.15;82.46;101335.34;4988631;28;20040;-73
2022/07/01 10:16:48;;;;;;;7.30;4.20;;;;;;;15.95;82.34;101344.00;4998492;28;20026;-72
2022/07/01 10:19:30;;;;;;;7.68;4.38;;;;;;;16.16;81.64;101350.69;4987481;28;20018;-73
2022/07/01 10:22:00;;;;;;;11.38;4.45;;;;;;;16.09;83.60;101344.25;4991495;28;20025;-73
2022/07/01 10:24:27;;;;;;;9.80;4.50;;;;;;;16.15;83.38;101351.72;5002650;28;20026;-74
2022/07/01 10:27:00;;;;;;;6.93;3.65;;;;;;;16.11;82.71;101344.94;4995605;28;20101;-73
2022/07/01 10:29:29;;;;;;;8.65;4.35;;;;;;;16.13;82.51;101348.34;4992546;28;20082;-73
2022/07/01 10:32:01;;;;;;;8.88;4.35;;;;;;;16.17;83.00;101344.19;4992890;28;20075;-72
2022/07/01 10:34:35;;;;;;;13.27;3.80;;;;;;;16.24;81.20;101356.09;4988640;28;20429;-73
2022/07/01 10:37:03;;;;;;;12.55;3.78;;;;;;;16.32;82.09;101353.28;4987646;28;20030;-72
2022/07/01 10:39:29;;;;;;;11.75;4.05;;;;;;;16.34;81.33;101356.69;4990030;28;20022;-72
2022/07/01 10:42:00;;;;;;;8.57;4.18;;;;;;;16.17;82.26;101357.84;4992033;28;20017;-71
2022/07/01 10:44:26;;;;;;;11.65;5.20;;;;;;;15.97;83.41;101361.09;4992522;28;20038;-73
2022/07/01 10:47:06;;;;;;;11.45;5.68;;;;;;;15.86;84.61;101369.69;5008047;28;20085;-72
2022/07/01 10:49:41;;;;;;;11.57;5.63;;;;;;;16.17;83.26;101366.03;4992606;28;20014;-72
2022/07/01 10:52:09;;;;;;;12.40;5.53;;;;;;;16.21;83.29;101372.84;4999262;28;20023;-71
2022/07/01 10:54:39;;;;;;;10.02;5.75;;;;;;;15.92;83.64;101385.34;4986747;28;20033;-71
2022/07/01 10:57:16;;;;;;;12.70;6.07;;;;;;;16.03;83.07;101392.25;5003883;28;20025;-72
2022/07/01 10:59:49;;;;;;;11.30;7.13;;;;;;;16.12;84.75;101406.75;4989914;28;20036;-71
2022/07/01 11:02:23;;;;;;;15.60;7.30;;;;;;;15.80;84.90;101408.63;4966264;28;20026;-71
2022/07/01 11:04:51;;;;;;;22.70;8.38;;;;;;;15.91;84.11;101400.06;4980253;28;20038;-72
2022/07/01 11:07:17;;;;;;;13.45;7.60;;;;;;;15.90;84.85;101409.25;4989302;28;20048;-71
2022/07/01 11:09:42;;;;;;;15.48;7.35;;;;;;;15.98;84.03;101411.94;4989246;28;20466;-71
2022/07/01 11:12:09;;;;;;;14.90;7.72;;;;;;;16.13;82.64;101422.09;4975855;28;20122;-71
2022/07/01 11:14:40;;;;;;;15.27;8.70;;;;;;;16.32;85.37;101415.31;4983101;28;20101;-71
2022/07/01 11:17:07;;;;;;;14.05;8.18;;;;;;;16.43;82.66;101421.19;4997526;28;20037;-71
2022/07/01 11:19:33;;;;;;;15.90;9.63;;;;;;;16.31;84.00;101422.66;4987627;28;20022;-73
2022/07/01 11:21:58;;;;;;;12.82;8.07;;;;;;;16.13;81.87;101419.38;4984990;28;20382;-71
2022/07/01 11:24:24;;;;;;;12.05;9.07;;;;;;;16.47;82.49;101422.50;4990407;28;20025;-71
2022/07/01 11:26:50;;;;;;;12.13;8.77;;;;;;;16.50;83.74;101405.75;5005123;28;20055;-71
2022/07/01 11:29:28;;;;;;;14.20;7.60;;;;;;;16.63;80.57;101409.75;4992749;28;20184;-73